createdAt,value
2024-03-15T00:02:59.431Z,99.99
2024-03-15T00:07:02.503Z,99.36
2024-03-15T00:11:06.680Z,99.67
2024-03-15T00:15:11.045Z,99.72
2024-03-15T00:19:13.084Z,99.96
2024-03-15T00:23:15.115Z,99.79
2024-03-15T00:27:17.189Z,100.00
2024-03-15T00:31:19.265Z,100.00
2024-03-15T00:35:21.505Z,100.00
2024-03-15T00:39:24.211Z,100.00
2024-03-15T00:43:26.323Z,100.00
2024-03-15T00:47:29.674Z,100.00
2024-03-15T00:51:31.906Z,100.00
2024-03-15T00:55:34.460Z,100.00
2024-03-15T00:59:36.503Z,100.00
2024-03-15T01:03:40.144Z,100.00
2024-03-15T01:07:43.667Z,100.00
2024-03-15T01:11:45.741Z,100.00
2024-03-15T01:15:47.909Z,100.00
2024-03-15T01:19:50.623Z,100.00
2024-03-15T01:23:53.691Z,100.00
2024-03-15T01:27:55.758Z,100.00
2024-03-15T01:31:58.014Z,100.00
2024-03-15T01:36:00.192Z,100.00
2024-03-15T01:40:02.258Z,100.00
2024-03-15T01:44:04.404Z,100.00
2024-03-15T01:48:08.646Z,100.00
2024-03-15T01:52:10.890Z,100.00
2024-03-15T01:56:13.884Z,100.00
2024-03-15T02:00:17.593Z,100.00
2024-03-15T02:04:19.699Z,100.00
2024-03-15T02:08:21.749Z,100.00
2024-03-15T02:12:24.525Z,100.00
2024-03-15T02:16:27.299Z,100.00
2024-03-15T02:20:29.372Z,100.00
2024-03-15T02:24:31.490Z,100.00
2024-03-15T02:28:34.536Z,100.00
2024-03-15T02:32:38.344Z,100.00
2024-03-15T02:36:41.362Z,100.00
2024-03-15T02:40:43.431Z,100.00
2024-03-15T02:44:45.507Z,100.00
2024-03-15T02:48:47.614Z,100.00
2024-03-15T02:52:50.201Z,100.00
2024-03-15T03:02:46.169Z,100.00
2024-03-15T03:06:48.563Z,100.00
2024-03-15T03:10:50.706Z,100.00
2024-03-15T03:14:52.794Z,100.00
2024-03-15T03:18:54.827Z,100.00
2024-03-15T03:22:57.984Z,100.00
2024-03-15T03:27:00.965Z,100.00
2024-03-15T03:31:03.286Z,100.00
2024-03-15T03:35:06.051Z,100.00
2024-03-15T03:39:09.591Z,100.00
2024-03-15T03:43:12.275Z,100.00
2024-03-15T03:47:14.295Z,100.00
2024-03-15T03:51:16.416Z,100.00
2024-03-15T03:55:18.485Z,100.00
2024-03-15T03:59:20.499Z,100.00
2024-03-15T04:03:22.579Z,100.00
2024-03-15T04:07:31.661Z,100.00
2024-03-15T04:11:34.204Z,100.00
2024-03-15T04:15:37.052Z,100.00
2024-03-15T04:19:40.180Z,100.00
2024-03-15T04:23:43.622Z,100.00
2024-03-15T04:27:47.526Z,100.00
2024-03-15T04:31:50.072Z,100.00
2024-03-15T04:35:52.189Z,100.00
2024-03-15T04:39:55.205Z,100.00
2024-03-15T04:43:57.413Z,100.00
2024-03-15T04:48:01.756Z,100.00
2024-03-15T04:52:04.030Z,100.00
2024-03-15T04:56:06.327Z,100.00
2024-03-15T05:00:14.552Z,100.00
2024-03-15T05:04:16.965Z,100.00
2024-03-15T05:08:19.027Z,100.00
2024-03-15T05:12:21.092Z,100.00
2024-03-15T05:16:23.767Z,100.00
2024-03-15T05:20:25.843Z,100.00
2024-03-15T05:24:27.861Z,100.00
2024-03-15T05:28:29.980Z,100.00
2024-03-15T05:32:33.277Z,100.00
2024-03-15T05:36:36.350Z,100.00
2024-03-15T05:40:38.463Z,100.00
2024-03-15T05:44:40.528Z,100.00
2024-03-15T05:48:43.074Z,100.00
2024-03-15T05:52:45.259Z,100.00
2024-03-15T05:56:47.448Z,100.00
2024-03-15T06:00:50.055Z,100.00
2024-03-15T06:04:52.153Z,100.00
2024-03-15T06:08:54.240Z,100.00
2024-03-15T06:12:56.441Z,100.00
2024-03-15T06:16:58.596Z,100.00
2024-03-15T06:21:01.181Z,100.00
2024-03-15T06:25:03.377Z,100.00
2024-03-15T06:29:06.213Z,100.00
2024-03-15T06:33:08.314Z,100.00
2024-03-15T06:37:13.280Z,100.00
2024-03-15T06:41:22.737Z,100.00
2024-03-15T06:45:25.466Z,100.00
2024-03-15T06:49:44.741Z,100.00
2024-03-15T06:53:48.662Z,100.00
2024-03-15T06:57:52.185Z,100.00
2024-03-15T07:01:56.535Z,99.17
2024-03-15T07:05:59.281Z,98.88
2024-03-15T07:10:01.678Z,97.32
2024-03-15T07:14:05.187Z,95.38
2024-03-15T07:18:09.445Z,94.84
2024-03-15T07:22:11.871Z,95.10
2024-03-15T07:26:14.128Z,94.85
2024-03-15T07:30:16.269Z,95.41
2024-03-15T07:34:18.555Z,96.07
2024-03-15T07:38:20.734Z,97.30
2024-03-15T07:42:22.818Z,98.63
2024-03-15T07:46:26.115Z,99.16
2024-03-15T07:50:28.258Z,100.00
2024-03-15T07:54:30.407Z,100.00
2024-03-15T07:58:33.343Z,100.00
2024-03-15T08:02:36.300Z,100.00
2024-03-15T08:06:38.475Z,100.00
2024-03-15T08:10:40.688Z,100.00
2024-03-15T08:14:43.958Z,99.50
2024-03-15T08:18:50.229Z,99.10
2024-03-15T08:22:53.352Z,97.12
2024-03-15T08:26:55.770Z,94.78
2024-03-15T08:30:58.355Z,93.58
2024-03-15T08:35:00.661Z,93.33
2024-03-15T08:39:08.706Z,92.22
2024-03-15T08:43:11.927Z,91.02
2024-03-15T08:47:14.202Z,90.24
2024-03-15T08:51:16.314Z,88.74
2024-03-15T08:55:19.647Z,88.03
2024-03-15T08:59:22.755Z,87.18
2024-03-15T09:03:26.575Z,87.44
2024-03-15T09:08:31.952Z,87.16
2024-03-15T09:12:36.341Z,87.89
2024-03-15T09:16:42.486Z,88.20
2024-03-15T09:20:45.681Z,88.23
2024-03-15T09:24:48.013Z,89.30
2024-03-15T09:28:50.417Z,89.52
2024-03-15T09:32:52.685Z,89.22
2024-03-15T09:36:56.922Z,89.15
2024-03-15T09:40:59.479Z,88.86
2024-03-15T09:45:01.544Z,89.44
2024-03-15T09:49:04.705Z,87.69
2024-03-15T09:53:08.720Z,88.44
2024-03-15T09:57:15.490Z,88.08
2024-03-15T10:01:18.939Z,88.51
2024-03-15T10:05:22.700Z,88.57
2024-03-15T10:09:24.997Z,88.46
2024-03-15T10:13:33.250Z,87.92
2024-03-15T10:17:37.388Z,87.91
2024-03-15T10:21:40.102Z,87.20
2024-03-15T10:25:42.201Z,86.91
2024-03-15T10:29:44.772Z,86.65
2024-03-15T10:33:46.946Z,85.59
2024-03-15T10:37:50.803Z,85.92
2024-03-15T10:41:53.140Z,84.42
2024-03-15T10:45:55.439Z,83.51
2024-03-15T10:49:58.275Z,84.27
2024-03-15T10:54:00.546Z,83.88
2024-03-15T10:58:07.205Z,83.43
2024-03-15T11:02:11.703Z,83.07
2024-03-15T11:06:13.917Z,81.47
2024-03-15T11:10:26.900Z,82.20
2024-03-15T11:14:34.146Z,82.75
2024-03-15T11:18:37.615Z,82.47
2024-03-15T11:22:40.377Z,81.01
2024-03-15T11:26:42.502Z,81.56
2024-03-15T11:30:46.338Z,80.27
2024-03-15T11:34:50.198Z,78.98
2024-03-15T11:38:52.291Z,78.02
2024-03-15T11:43:02.602Z,78.15
2024-03-15T11:47:10.614Z,79.27
2024-03-15T11:51:12.816Z,80.94
2024-03-15T11:55:19.081Z,82.94
2024-03-15T11:59:21.529Z,84.79
2024-03-15T12:03:29.003Z,84.22
2024-03-15T12:07:31.909Z,84.26
2024-03-15T12:11:38.157Z,86.04
2024-03-15T12:15:40.661Z,86.20
2024-03-15T12:19:42.811Z,84.98
2024-03-15T12:23:44.837Z,83.55
2024-03-15T12:27:47.031Z,82.10
2024-03-15T12:31:49.212Z,80.03
2024-03-15T12:35:51.535Z,78.72
2024-03-15T12:39:53.786Z,78.24
2024-03-15T12:43:55.953Z,75.47
2024-03-15T12:47:58.085Z,74.64
2024-03-15T12:52:00.417Z,74.14
2024-03-15T12:56:02.615Z,72.70
2024-03-15T13:00:12.559Z,73.67
2024-03-15T13:04:14.805Z,73.90
2024-03-15T13:08:17.322Z,73.43
2024-03-15T13:12:19.361Z,73.56
2024-03-15T13:16:21.529Z,72.39
2024-03-15T13:20:24.653Z,71.13
2024-03-15T13:24:26.996Z,70.22
2024-03-15T13:28:29.128Z,70.74
2024-03-15T13:32:31.358Z,70.00
2024-03-15T13:36:35.254Z,71.10
2024-03-15T13:40:37.346Z,70.31
2024-03-15T13:44:39.401Z,69.32
2024-03-15T13:48:45.317Z,68.24
2024-03-15T13:52:49.092Z,71.08
2024-03-15T13:56:51.962Z,69.61
2024-03-15T14:00:54.110Z,68.95
2024-03-15T14:04:57.095Z,66.90
2024-03-15T14:08:59.589Z,67.44
2024-03-15T14:13:02.638Z,68.01
2024-03-15T14:17:05.640Z,67.65
2024-03-15T14:21:08.012Z,68.77
2024-03-15T14:25:17.153Z,69.23
2024-03-15T14:29:21.965Z,70.38
2024-03-15T14:33:24.028Z,69.70
2024-03-15T14:37:29.711Z,69.86
2024-03-15T14:41:31.773Z,70.80
2024-03-15T14:45:37.120Z,69.58
2024-03-15T14:49:39.936Z,68.83
2024-03-15T14:53:43.839Z,68.46
2024-03-15T14:57:46.322Z,67.43
2024-03-15T15:01:48.741Z,67.65
2024-03-15T15:05:51.169Z,68.04
2024-03-15T15:09:53.845Z,69.38
2024-03-15T15:13:55.971Z,70.11
2024-03-15T15:17:58.506Z,70.28
2024-03-15T15:22:00.757Z,70.35
2024-03-15T15:26:02.945Z,70.43
2024-03-15T15:30:10.299Z,69.85
2024-03-15T15:34:12.481Z,70.09
2024-03-15T15:38:14.888Z,68.73
2024-03-15T15:42:16.986Z,68.58
2024-03-15T15:46:19.240Z,68.90
2024-03-15T15:50:23.328Z,69.68
2024-03-15T15:54:26.894Z,70.55
2024-03-15T15:58:29.240Z,70.78
2024-03-15T16:02:31.487Z,70.62
2024-03-15T16:06:33.679Z,70.64
2024-03-15T16:10:38.214Z,70.86
2024-03-15T16:14:40.258Z,72.25
2024-03-15T16:18:42.377Z,81.44
2024-03-15T16:22:44.452Z,79.51
2024-03-15T16:26:46.485Z,68.36
2024-03-15T16:30:48.538Z,67.90
2024-03-15T16:34:51.061Z,69.26
2024-03-15T16:38:55.491Z,70.37
2024-03-15T16:43:00.224Z,71.50
2024-03-15T16:47:02.456Z,72.29
2024-03-15T16:51:05.226Z,73.07
2024-03-15T16:55:12.485Z,73.97
2024-03-15T16:59:15.464Z,74.32
2024-03-15T17:03:17.815Z,75.29
2024-03-15T17:07:20.022Z,75.89
2024-03-15T17:11:22.131Z,76.50
2024-03-15T17:15:27.607Z,77.27
2024-03-15T17:19:29.746Z,77.84
2024-03-15T17:29:31.327Z,81.71
2024-03-15T17:33:33.425Z,83.05
2024-03-15T17:37:35.672Z,82.96
2024-03-15T17:41:38.293Z,82.82
2024-03-15T17:45:40.574Z,83.27
2024-03-15T17:49:42.706Z,82.91
2024-03-15T17:53:45.807Z,81.58
2024-03-15T17:57:47.871Z,81.70
2024-03-15T18:01:50.023Z,82.41
2024-03-15T18:05:52.103Z,82.92
2024-03-15T18:09:54.177Z,83.31
2024-03-15T18:13:56.308Z,84.31
2024-03-15T18:17:58.389Z,88.28
2024-03-15T18:22:01.329Z,86.15
2024-03-15T18:26:03.734Z,85.81
2024-03-15T18:30:06.750Z,86.54
2024-03-15T18:34:09.480Z,86.86
2024-03-15T18:38:11.786Z,86.91
2024-03-15T18:42:13.823Z,86.80
2024-03-15T18:46:15.949Z,86.49
2024-03-15T18:50:18.156Z,86.12
2024-03-15T18:54:21.350Z,85.82
2024-03-15T18:58:24.543Z,86.26
2024-03-15T19:02:27.652Z,86.61
2024-03-15T19:06:29.724Z,86.86
2024-03-15T19:10:31.772Z,87.08
2024-03-15T19:14:35.120Z,87.33
2024-03-15T19:18:37.255Z,88.01
2024-03-15T19:22:39.579Z,88.67
2024-03-15T19:26:41.636Z,89.57
2024-03-15T19:30:43.738Z,90.23
2024-03-15T19:34:45.898Z,90.77
2024-03-15T19:38:48.010Z,91.41
2024-03-15T19:42:50.829Z,92.12
2024-03-15T19:46:54.112Z,92.63
2024-03-15T19:50:56.172Z,93.51
2024-03-15T19:54:58.272Z,96.67
2024-03-15T19:59:00.394Z,100.00
2024-03-15T20:03:02.460Z,100.00
2024-03-15T20:07:05.470Z,100.00
2024-03-15T20:11:13.046Z,100.00
2024-03-15T20:15:15.198Z,100.00
2024-03-15T20:19:20.183Z,100.00
2024-03-15T20:23:22.311Z,100.00
2024-03-15T20:27:24.323Z,100.00
2024-03-15T20:31:26.479Z,100.00
2024-03-15T20:35:29.393Z,100.00
2024-03-15T20:39:32.695Z,100.00
2024-03-15T20:43:35.198Z,100.00
2024-03-15T20:47:37.292Z,100.00
2024-03-15T20:51:39.399Z,100.00
2024-03-15T20:55:42.661Z,100.00
2024-03-15T20:59:44.823Z,100.00
2024-03-15T21:03:49.760Z,100.00
2024-03-15T21:07:51.896Z,100.00
2024-03-15T21:11:53.934Z,100.00
2024-03-15T21:15:56.916Z,100.00
2024-03-15T21:20:02.719Z,100.00
2024-03-15T21:24:05.592Z,100.00
2024-03-15T21:28:09.906Z,100.00
2024-03-15T21:32:12.074Z,100.00
2024-03-15T21:36:14.102Z,100.00
2024-03-15T21:40:19.501Z,100.00
2024-03-15T21:44:21.774Z,100.00
2024-03-15T21:48:23.823Z,100.00
2024-03-15T21:52:27.438Z,100.00
2024-03-15T21:56:29.780Z,100.00
2024-03-15T22:00:37.906Z,100.00
2024-03-15T22:04:40.417Z,100.00
2024-03-15T22:08:42.479Z,100.00
2024-03-15T22:12:48.019Z,100.00
2024-03-15T22:16:50.246Z,100.00
2024-03-15T22:20:52.466Z,100.00
2024-03-15T22:25:04.738Z,100.00
2024-03-15T22:29:12.729Z,100.00
2024-03-15T22:33:16.041Z,100.00
2024-03-15T22:37:18.197Z,100.00
2024-03-15T22:41:24.037Z,100.00
2024-03-15T22:45:27.571Z,100.00
2024-03-15T22:49:30.882Z,100.00
2024-03-15T22:53:34.066Z,100.00
2024-03-15T22:57:36.410Z,100.00
2024-03-15T23:01:38.904Z,100.00
2024-03-15T23:05:42.390Z,100.00
2024-03-15T23:09:44.497Z,100.00
2024-03-15T23:13:46.586Z,100.00
2024-03-15T23:17:49.792Z,100.00
2024-03-15T23:21:54.818Z,100.00
2024-03-15T23:25:58.428Z,100.00
2024-03-15T23:30:00.468Z,100.00
2024-03-15T23:34:05.285Z,100.00
2024-03-15T23:38:07.432Z,100.00
2024-03-15T23:42:09.493Z,100.00
2024-03-15T23:46:11.639Z,100.00
2024-03-15T23:50:15.058Z,100.00
2024-03-15T23:54:17.110Z,100.00
2024-03-15T23:58:19.476Z,100.00
